This is the latest recevied weather packets stored in our database for station/object JA3VQW-13. If no packets are shown the sender has not sent any weather packets the latest 10 day(s).
| Time | Temp. | Humidity | Pressure | Rain* | Wind** | Luminosity | Snow |
|---|---|---|---|---|---|---|---|
| 1788153612 | 101° F | 19% | 750.8 mmHg | 0 in | - | - | - |
| 1788152876 | 99° F | 19% | 751.6 mmHg | 0 in | - | - | - |
| 1788152712 | 100° F | 19% | 751.6 mmHg | 0 in | - | - | - |
| 1788151813 | 101° F | 18% | 751.6 mmHg | 0 in | - | - | - |
| 1788151078 | 101° F | 17% | 751.6 mmHg | 0 in | - | - | - |
| 1788150913 | 102° F | 16% | 751.6 mmHg | 0 in | - | - | - |
| 1788150012 | 102° F | 17% | 751.6 mmHg | 0 in | - | - | - |
| 1788149277 | 103° F | 17% | 751.6 mmHg | 0 in | - | - | - |
| 1788149111 | 102° F | 17% | 751.6 mmHg | 0 in | - | - | - |
| 1788148212 | 102° F | 18% | 751.6 mmHg | 0 in | - | - | - |
| 1788147477 | 98° F | 23% | 751.6 mmHg | 0 in | - | - | - |
| 1788147312 | 98° F | 22% | 751.6 mmHg | 0 in | - | - | - |
| 1788146412 | 101° F | 19% | 751.6 mmHg | 0 in | - | - | - |
| 1788145677 | 101° F | 20% | 751.6 mmHg | 0 in | - | - | - |
| 1788145512 | 101° F | 20% | 751.6 mmHg | 0 in | - | - | - |
| 1788144611 | 102° F | 20% | 752.3 mmHg | 0 in | - | - | - |
| 1788143876 | 100° F | 22% | 751.6 mmHg | 0 in | - | - | - |
| 1788143711 | 101° F | 21% | 751.6 mmHg | 0 in | - | - | - |
| 1788142812 | 99° F | 25% | 752.3 mmHg | 0 in | - | - | - |
| 1788142078 | 97° F | 27% | 752.3 mmHg | 0 in | - | - | - |
| 1788141913 | 97° F | 27% | 752.3 mmHg | 0 in | - | - | - |
| 1788141012 | 96° F | 27% | 752.3 mmHg | 0 in | - | - | - |
| 1788140277 | 94° F | 29% | 752.3 mmHg | 0 in | - | - | - |
| 1788140112 | 94° F | 30% | 752.3 mmHg | 0 in | - | - | - |
| 1788139212 | 93° F | 31% | 752.3 mmHg | 0 in | - | - | - |
* Rain latest hour (hover to see other rain measurements)
** Current wind speed in m/s (hover to see current wind gust speed)